KSPW/SPW METAR and TAF weather

Enter ICAO airport designator
Station Type Date Time Source
KSPW METAR 2019/12/07 06:53 UTC NOAA

KSPW 070653Z AUTO 20013KT 10SM CLR M03/M07 A3020 RMK AO2 SLP247 T10281067


Station Type Date Time Source
KSPW Decoded METAR 2019/12/07 06:53 UTC NOAA

SPENCER MUNICIPAL AIRPORT, IA, United States (KSPW) 43-10N 95-13W 403M
Dec 07, 2019 - 01:53 AM EST / 2019.12.07 0653 UTC
Wind: from the SSW (200 degrees) at 15 MPH (13 KT):0
Visibility: 10 mile(s):0
Sky conditions: clear
Temperature: 27.0 F (-2.8 C)
Windchill: 15 F (-9 C):1
Dew Point: 19.9 F (-6.7 C)
Relative Humidity: 74%
Pressure (altimeter): 30.2 in. Hg (1022 hPa)
ob: KSPW 070653Z AUTO 20013KT 10SM CLR M03/M07 A3020 RMK AO2 SLP247 T10281067
cycle: 7

Station Type Date Time Source
KSPW TAF UTC NOAA

Error!

Example: see airport list